Time;durP1;ratioP1;P1;durP2;ratioP2;P2;SDS_P1;SDS_P2;PMS_P1;PMS_P2;Temp;Humidity;BMP_temperature;BMP_pressure;BME280_temperature;BME280_humidity;BME280_pressure;Samples;Min_cycle;Max_cycle;Signal;HPM_P1;HPM_P2
2023/01/21 00:00:54;;;;;;;50.47;25.03;;;0.70;99.90;;;;;;5070094;28;20292;-86
2023/01/21 00:03:22;;;;;;;47.83;25.93;;;0.60;99.90;;;;;;5071106;28;20300;-88
2023/01/21 00:05:50;;;;;;;45.90;23.40;;;0.70;99.90;;;;;;5055650;28;20216;-82
2023/01/21 00:08:17;;;;;;;47.53;25.83;;;0.60;99.90;;;;;;5054851;28;20304;-82
2023/01/21 00:10:44;;;;;;;41.73;23.53;;;0.70;99.90;;;;;;5068666;28;20938;-85
2023/01/21 00:13:11;;;;;;;42.47;24.40;;;0.60;99.90;;;;;;5067120;28;20327;-88
2023/01/21 00:15:38;;;;;;;47.90;25.30;;;0.60;99.90;;;;;;5068372;28;20197;-89
2023/01/21 00:18:05;;;;;;;45.70;23.87;;;0.60;99.90;;;;;;5070428;28;20205;-90
2023/01/21 00:20:31;;;;;;;43.10;23.70;;;0.60;99.90;;;;;;5070934;28;20274;-86
2023/01/21 00:23:00;;;;;;;43.03;24.03;;;0.60;99.90;;;;;;5072241;28;20273;-82
2023/01/21 00:25:27;;;;;;;45.30;22.93;;;0.60;99.90;;;;;;5071277;28;20314;-90
2023/01/21 00:27:54;;;;;;;45.07;23.50;;;0.50;99.90;;;;;;5072525;28;20288;-90
2023/01/21 00:30:21;;;;;;;41.13;23.77;;;0.50;99.90;;;;;;5071988;28;20312;-88
2023/01/21 00:32:48;;;;;;;45.17;24.27;;;0.40;99.90;;;;;;5071224;28;20252;-86
2023/01/21 00:35:16;;;;;;;43.87;23.27;;;0.40;99.90;;;;;;5071917;28;20221;-89
2023/01/21 00:37:43;;;;;;;49.50;23.73;;;0.40;99.90;;;;;;5071747;28;20229;-84
2023/01/21 00:40:12;;;;;;;47.90;24.57;;;0.40;99.90;;;;;;5071210;28;20212;-88
2023/01/21 00:42:39;;;;;;;47.67;23.50;;;0.40;99.90;;;;;;5061506;28;20212;-83
2023/01/21 00:45:07;;;;;;;38.50;21.70;;;0.40;99.90;;;;;;5051381;28;20213;-83
2023/01/21 00:47:34;;;;;;;44.33;23.67;;;0.30;99.90;;;;;;5050362;28;20305;-87
2023/01/21 00:50:01;;;;;;;41.30;22.67;;;0.30;99.90;;;;;;5064923;28;20231;-88
2023/01/21 00:52:28;;;;;;;37.10;21.30;;;0.30;99.90;;;;;;5067545;28;20516;-88
2023/01/21 00:54:55;;;;;;;48.33;22.90;;;0.30;99.90;;;;;;5063002;28;20210;-82
2023/01/21 00:57:23;;;;;;;49.37;23.97;;;0.30;99.90;;;;;;5049398;28;20198;-89
2023/01/21 00:59:50;;;;;;;47.13;24.50;;;0.30;99.90;;;;;;5060097;28;20296;-89
2023/01/21 01:02:17;;;;;;;46.27;24.80;;;0.30;99.90;;;;;;5070673;28;20201;-85
2023/01/21 01:04:44;;;;;;;44.47;21.83;;;0.30;99.90;;;;;;5069571;28;20724;-84
2023/01/21 01:07:11;;;;;;;43.80;22.73;;;0.30;99.90;;;;;;5068934;28;20206;-85
2023/01/21 01:09:38;;;;;;;48.17;24.70;;;0.30;99.90;;;;;;5049527;28;20904;-87
2023/01/21 01:12:06;;;;;;;40.27;21.83;;;0.30;99.90;;;;;;5061182;28;20299;-86
2023/01/21 01:14:34;;;;;;;44.40;23.13;;;0.20;99.90;;;;;;5068853;28;20213;-86
2023/01/21 01:17:01;;;;;;;46.07;21.30;;;0.20;99.90;;;;;;5066732;28;20292;-82
2023/01/21 01:19:28;;;;;;;46.47;23.93;;;0.20;99.90;;;;;;5067655;28;20194;-82
2023/01/21 01:21:55;;;;;;;45.97;24.67;;;0.20;99.90;;;;;;5070354;28;20593;-87
2023/01/21 01:24:22;;;;;;;48.73;24.23;;;0.20;99.90;;;;;;5071002;28;20263;-85
2023/01/21 01:26:49;;;;;;;47.03;22.20;;;0.10;99.90;;;;;;5068164;28;20207;-88
2023/01/21 01:29:17;;;;;;;42.20;22.40;;;0.20;99.90;;;;;;5067182;28;20229;-86
2023/01/21 01:31:45;;;;;;;47.43;25.23;;;0.10;99.90;;;;;;5067266;28;20568;-84
2023/01/21 01:34:12;;;;;;;57.90;25.27;;;0.10;99.90;;;;;;5069337;28;20605;-88
2023/01/21 01:36:39;;;;;;;48.03;23.27;;;0.10;99.90;;;;;;5068853;28;20302;-89
2023/01/21 01:39:06;;;;;;;41.67;22.20;;;0.10;99.90;;;;;;5069548;28;20213;-85
2023/01/21 01:41:34;;;;;;;46.50;23.07;;;0.10;99.90;;;;;;5068050;28;20213;-82
2023/01/21 01:44:03;;;;;;;44.50;21.77;;;0.00;99.90;;;;;;5067204;28;20211;-88
2023/01/21 01:46:32;;;;;;;43.87;22.40;;;0.00;99.90;;;;;;5067302;28;20284;-88
2023/01/21 01:49:05;;;;;;;43.17;22.10;;;0.00;99.90;;;;;;5051601;28;20931;-86
2023/01/21 01:51:41;;;;;;;44.07;22.23;;;0.00;99.90;;;;;;5048062;28;20512;-84
2023/01/21 01:54:09;;;;;;;44.73;22.47;;;0.00;99.90;;;;;;5049762;28;20273;-85
2023/01/21 01:56:39;;;;;;;49.77;23.50;;;0.00;99.90;;;;;;5049166;28;20646;-85
2023/01/21 01:59:07;;;;;;;44.00;23.13;;;0.00;99.90;;;;;;5068887;28;20212;-87
2023/01/21 02:01:34;;;;;;;46.53;23.30;;;-0.10;99.90;;;;;;5067922;28;20601;-88
2023/01/21 02:04:06;;;;;;;46.70;23.90;;;0.00;99.90;;;;;;5065621;28;20257;-82
2023/01/21 02:06:34;;;;;;;46.90;22.27;;;0.00;99.90;;;;;;5064977;28;20219;-86
2023/01/21 02:09:02;;;;;;;47.37;24.43;;;0.00;99.90;;;;;;5067134;28;20224;-82
2023/01/21 02:11:29;;;;;;;51.47;26.07;;;0.00;99.90;;;;;;5063821;28;20332;-80
2023/01/21 02:13:58;;;;;;;50.93;23.70;;;-0.10;99.90;;;;;;5064748;28;20656;-80
2023/01/21 02:16:50;;;;;;;44.83;22.63;;;-0.10;99.90;;;;;;5064440;28;20205;-78
2023/01/21 02:20:04;;;;;;;48.37;22.90;;;-0.10;99.90;;;;;;5064647;28;20197;-79
2023/01/21 02:22:37;;;;;;;45.93;22.97;;;-0.10;99.90;;;;;;5041563;28;20201;-82
2023/01/21 02:25:39;;;;;;;47.43;24.27;;;-0.10;99.90;;;;;;5063808;28;20211;-80
2023/01/21 02:28:45;;;;;;;47.97;22.60;;;-0.10;99.90;;;;;;5061680;28;20205;-84
2023/01/21 02:31:56;;;;;;;44.43;22.90;;;-0.10;99.90;;;;;;5020600;28;20661;-84
2023/01/21 02:34:32;;;;;;;50.90;24.10;;;-0.10;99.90;;;;;;4997944;28;20201;-84
2023/01/21 02:37:09;;;;;;;43.03;22.43;;;-0.20;99.90;;;;;;5051415;28;20196;-86
2023/01/21 02:39:51;;;;;;;42.40;22.03;;;-0.20;99.90;;;;;;5065309;28;20279;-79
2023/01/21 02:42:23;;;;;;;43.40;21.93;;;-0.20;99.90;;;;;;5064403;28;20239;-79
2023/01/21 02:44:56;;;;;;;43.33;21.33;;;-0.30;99.90;;;;;;5065086;28;20295;-81
2023/01/21 02:47:28;;;;;;;43.40;22.03;;;-0.30;99.90;;;;;;5064298;28;20189;-79
2023/01/21 02:50:02;;;;;;;46.03;23.77;;;-0.30;99.90;;;;;;5044607;28;20240;-90
2023/01/21 02:52:30;;;;;;;49.93;25.23;;;-0.30;99.90;;;;;;5048216;28;20296;-81
2023/01/21 02:54:59;;;;;;;43.57;22.87;;;-0.40;99.90;;;;;;5056140;28;20296;-81
2023/01/21 02:57:44;;;;;;;48.77;24.20;;;-0.40;99.90;;;;;;5072510;28;20211;-89
2023/01/21 03:00:15;;;;;;;46.97;22.47;;;-0.40;99.90;;;;;;5059497;28;20684;-81
2023/01/21 03:03:10;;;;;;;41.03;20.87;;;-0.40;99.90;;;;;;5046168;28;20586;-82
2023/01/21 03:06:04;;;;;;;42.47;22.60;;;-0.40;99.90;;;;;;5033824;28;20313;-83
2023/01/21 03:08:38;;;;;;;41.10;21.27;;;-0.50;99.90;;;;;;5045747;28;20296;-89
2023/01/21 03:11:13;;;;;;;50.00;24.60;;;-0.50;99.90;;;;;;5045558;28;20704;-87
2023/01/21 03:19:19;;;;;;;47.70;24.27;;;-0.50;99.90;;;;;;5067902;28;20783;-83
2023/01/21 03:21:48;;;;;;;51.23;23.50;;;-0.50;99.90;;;;;;5067135;28;20558;-87
2023/01/21 03:24:16;;;;;;;43.27;22.37;;;-0.50;99.90;;;;;;5066912;28;20219;-81
2023/01/21 03:26:47;;;;;;;48.33;25.27;;;-0.50;99.90;;;;;;5064763;28;20207;-85
2023/01/21 03:29:18;;;;;;;52.87;24.80;;;-0.50;99.90;;;;;;5063548;28;20217;-80
2023/01/21 03:31:48;;;;;;;43.63;22.20;;;-0.50;99.90;;;;;;5065941;28;20318;-82
2023/01/21 03:34:18;;;;;;;44.10;22.63;;;-0.60;99.90;;;;;;5066408;28;20649;-81
2023/01/21 03:36:51;;;;;;;48.07;24.10;;;-0.60;99.90;;;;;;5066850;28;20532;-90
2023/01/21 03:39:25;;;;;;;40.60;22.57;;;-0.60;99.90;;;;;;5066549;28;20209;-80
2023/01/21 03:41:52;;;;;;;42.87;22.33;;;-0.70;99.90;;;;;;5066478;28;20197;-83
2023/01/21 03:44:19;;;;;;;43.70;22.90;;;-0.70;99.90;;;;;;5066476;28;20201;-81
2023/01/21 03:46:56;;;;;;;50.17;24.97;;;-0.70;99.90;;;;;;5066070;28;20295;-87
2023/01/21 03:49:30;;;;;;;49.47;25.23;;;-0.70;99.90;;;;;;5067337;28;20272;-87
2023/01/21 03:52:01;;;;;;;45.30;23.20;;;-0.70;99.90;;;;;;5062859;28;20225;-92
2023/01/21 03:54:28;;;;;;;52.13;24.90;;;-0.70;99.90;;;;;;5048399;28;20198;-89
2023/01/21 03:56:55;;;;;;;53.10;25.07;;;-0.70;99.90;;;;;;5050751;28;20202;-88
2023/01/21 03:59:22;;;;;;;49.90;25.97;;;-0.70;99.90;;;;;;5052531;28;20321;-80
2023/01/21 04:01:49;;;;;;;46.40;23.70;;;-0.70;99.90;;;;;;5067645;28;20256;-83
2023/01/21 04:04:16;;;;;;;47.67;25.20;;;-0.70;99.90;;;;;;5070926;28;20284;-89
2023/01/21 04:06:43;;;;;;;46.50;22.37;;;-0.70;99.90;;;;;;5071036;28;20316;-84
2023/01/21 04:09:11;;;;;;;45.83;22.80;;;-0.70;99.90;;;;;;5071506;28;20312;-84
2023/01/21 04:11:38;;;;;;;48.37;23.27;;;-0.70;99.90;;;;;;5070776;28;20579;-90
2023/01/21 04:14:05;;;;;;;48.33;23.53;;;-0.70;99.90;;;;;;5070318;28;20326;-86
2023/01/21 04:16:32;;;;;;;44.07;23.67;;;-0.70;99.90;;;;;;5073110;28;20943;-83
2023/01/21 04:18:59;;;;;;;50.97;25.07;;;-0.70;99.90;;;;;;5068051;28;20288;-89
2023/01/21 04:21:26;;;;;;;45.47;22.80;;;-0.70;99.90;;;;;;5070181;28;20790;-91
2023/01/21 04:23:54;;;;;;;39.40;21.60;;;-0.70;99.90;;;;;;5068935;28;20296;-79
2023/01/21 04:26:22;;;;;;;41.03;22.60;;;-0.70;99.90;;;;;;5067933;28;20324;-83
2023/01/21 04:28:49;;;;;;;43.93;23.17;;;-0.70;99.90;;;;;;5067624;28;20205;-86
2023/01/21 04:31:16;;;;;;;43.23;22.57;;;-0.80;99.90;;;;;;5069697;28;20252;-92
2023/01/21 04:33:43;;;;;;;48.43;25.43;;;-0.80;99.90;;;;;;5072031;28;20193;-90
2023/01/21 04:36:10;;;;;;;49.07;23.37;;;-0.80;99.90;;;;;;5073109;28;20213;-94
2023/01/21 04:38:37;;;;;;;44.63;23.90;;;-0.90;99.90;;;;;;5072544;28;20224;-91
2023/01/21 04:41:04;;;;;;;41.63;21.40;;;-0.90;99.90;;;;;;5072003;28;20201;-88
2023/01/21 04:43:32;;;;;;;40.63;21.23;;;-0.90;99.90;;;;;;5073335;28;20281;-92
2023/01/21 04:45:59;;;;;;;40.80;20.73;;;-1.00;99.90;;;;;;5073378;28;20228;-94
2023/01/21 04:48:26;;;;;;;42.40;22.73;;;-1.00;99.90;;;;;;5074307;28;20201;-94
2023/01/21 04:50:53;;;;;;;49.50;26.70;;;-1.00;99.90;;;;;;5052982;28;20232;-95
2023/01/21 04:53:19;;;;;;;56.43;31.07;;;-1.00;99.90;;;;;;5054647;28;20213;-93
2023/01/21 04:55:47;;;;;;;57.73;31.03;;;-1.10;99.90;;;;;;5054579;28;20469;-94
2023/01/21 04:58:14;;;;;;;48.67;26.70;;;-1.10;99.90;;;;;;5054179;28;20234;-92
2023/01/21 05:00:42;;;;;;;48.50;26.03;;;-1.10;99.90;;;;;;5072759;28;20269;-93
2023/01/21 05:03:09;;;;;;;42.67;23.47;;;-1.10;99.90;;;;;;5073162;28;20290;-87
2023/01/21 05:05:36;;;;;;;43.27;22.37;;;-1.20;99.90;;;;;;5072412;28;20206;-82
2023/01/21 05:08:02;;;;;;;39.60;21.67;;;-1.20;99.90;;;;;;5072508;28;20205;-94
2023/01/21 05:10:29;;;;;;;39.47;21.03;;;-1.20;99.90;;;;;;5071849;28;20221;-92
2023/01/21 05:12:56;;;;;;;38.63;20.23;;;-1.20;99.90;;;;;;5073445;28;20256;-93
2023/01/21 05:15:23;;;;;;;40.73;21.93;;;-1.20;99.90;;;;;;5072526;28;20201;-85
2023/01/21 05:17:52;;;;;;;43.40;22.03;;;-1.30;99.90;;;;;;5069966;28;20596;-85
2023/01/21 05:20:19;;;;;;;44.27;23.50;;;-1.30;99.90;;;;;;5070645;28;20208;-93
2023/01/21 05:22:46;;;;;;;39.50;21.20;;;-1.30;99.90;;;;;;5069284;28;20213;-94
2023/01/21 05:25:13;;;;;;;38.83;19.80;;;-1.30;99.90;;;;;;5071010;28;20291;-92
2023/01/21 05:27:40;;;;;;;39.80;21.03;;;-1.30;99.90;;;;;;5071053;28;20246;-91
2023/01/21 05:30:09;;;;;;;40.77;20.30;;;-1.30;99.90;;;;;;5071218;28;20205;-96
2023/01/21 05:32:36;;;;;;;43.33;22.07;;;-1.40;99.90;;;;;;5071898;28;20316;-89
2023/01/21 05:35:05;;;;;;;37.87;21.57;;;-1.30;99.90;;;;;;5073681;28;20211;-96
2023/01/21 05:37:32;;;;;;;43.60;22.13;;;-1.40;99.90;;;;;;5080740;28;20319;-92
2023/01/21 05:39:59;;;;;;;39.80;21.10;;;-1.40;99.90;;;;;;5071670;28;20240;-75
2023/01/21 05:42:26;;;;;;;46.27;24.77;;;-1.40;99.90;;;;;;5065146;28;20201;-76
2023/01/21 05:44:53;;;;;;;49.07;24.70;;;-1.40;99.90;;;;;;5065329;28;20228;-85
2023/01/21 05:47:20;;;;;;;47.53;23.47;;;-1.40;99.90;;;;;;5064105;28;20197;-80
2023/01/21 05:49:47;;;;;;;50.37;24.93;;;-1.40;99.90;;;;;;5064580;28;20516;-79
2023/01/21 05:52:15;;;;;;;49.70;25.77;;;-1.40;99.90;;;;;;5064281;28;20217;-82
2023/01/21 05:54:42;;;;;;;43.30;22.20;;;-1.40;99.90;;;;;;5063985;28;20209;-80
2023/01/21 05:57:08;;;;;;;40.33;21.97;;;-1.40;99.90;;;;;;5064983;28;20676;-89
2023/01/21 05:59:35;;;;;;;39.77;20.77;;;-1.40;99.90;;;;;;5070675;28;20871;-93
2023/01/21 06:02:02;;;;;;;37.87;19.80;;;-1.40;99.90;;;;;;5071491;28;20225;-91
2023/01/21 06:04:29;;;;;;;38.83;20.70;;;-1.40;99.90;;;;;;5069516;28;20208;-80
2023/01/21 06:06:56;;;;;;;37.63;20.43;;;-1.40;99.90;;;;;;5062831;28;20232;-77
2023/01/21 06:09:24;;;;;;;37.57;21.07;;;-1.50;99.90;;;;;;5063780;28;20716;-77
2023/01/21 06:11:51;;;;;;;37.10;20.03;;;-1.50;99.90;;;;;;5056477;28;20322;-77
2023/01/21 06:14:18;;;;;;;39.10;19.90;;;-1.50;99.90;;;;;;5061582;28;20248;-80
2023/01/21 06:16:45;;;;;;;39.63;20.27;;;-1.50;99.90;;;;;;5063374;28;20308;-78
2023/01/21 06:19:12;;;;;;;39.40;21.63;;;-1.50;99.90;;;;;;5061660;28;20209;-77
2023/01/21 06:21:39;;;;;;;46.47;22.97;;;-1.50;99.90;;;;;;5063455;28;20200;-77
2023/01/21 06:24:06;;;;;;;51.53;24.33;;;-1.50;99.90;;;;;;5063339;28;20300;-77
2023/01/21 06:26:37;;;;;;;61.57;26.50;;;-1.50;99.90;;;;;;5068502;22;20248;-78
2023/01/21 06:29:04;;;;;;;47.10;23.37;;;-1.50;99.90;;;;;;5063489;28;20203;-76
2023/01/21 06:31:31;;;;;;;50.87;24.43;;;-1.50;99.90;;;;;;5062089;28;20227;-77
2023/01/21 06:33:58;;;;;;;52.37;26.27;;;-1.50;99.90;;;;;;5063259;28;20250;-76
2023/01/21 06:36:25;;;;;;;55.40;26.40;;;-1.50;99.90;;;;;;5062725;28;20917;-77
2023/01/21 06:38:51;;;;;;;42.53;21.63;;;-1.50;99.90;;;;;;5062306;28;20216;-76
2023/01/21 06:41:18;;;;;;;46.17;23.73;;;-1.50;99.90;;;;;;5063245;28;20597;-76
2023/01/21 06:43:46;;;;;;;42.40;20.97;;;-1.50;99.90;;;;;;5061717;28;20204;-77
2023/01/21 06:46:13;;;;;;;41.03;19.83;;;-1.50;99.90;;;;;;5061666;28;20296;-76
2023/01/21 06:48:42;;;;;;;38.33;20.63;;;-1.60;99.90;;;;;;5063159;28;20248;-76
2023/01/21 06:51:09;;;;;;;38.53;20.47;;;-1.60;99.90;;;;;;5062355;28;20220;-76
2023/01/21 06:53:35;;;;;;;43.40;21.97;;;-1.60;99.90;;;;;;5063009;28;20200;-78
2023/01/21 06:56:02;;;;;;;42.07;21.33;;;-1.60;99.90;;;;;;5062877;28;20209;-81
2023/01/21 06:58:29;;;;;;;40.87;21.20;;;-1.60;99.90;;;;;;5062761;28;20288;-75
2023/01/21 07:00:58;;;;;;;42.20;21.23;;;-1.70;99.90;;;;;;5062188;28;20211;-77
2023/01/21 07:03:24;;;;;;;36.80;19.53;;;-1.70;99.90;;;;;;5063457;28;20824;-78
2023/01/21 07:05:51;;;;;;;40.43;21.10;;;-1.70;99.90;;;;;;5063875;28;20212;-82
2023/01/21 07:08:18;;;;;;;38.63;18.77;;;-1.70;99.90;;;;;;5062083;28;20212;-77
2023/01/21 07:10:45;;;;;;;41.53;21.87;;;-1.70;99.90;;;;;;5064799;28;20284;-79
2023/01/21 07:13:12;;;;;;;37.83;20.97;;;-1.70;99.90;;;;;;5063086;28;20225;-83
2023/01/21 07:15:39;;;;;;;39.60;20.93;;;-1.70;99.90;;;;;;5061975;28;20228;-76
2023/01/21 07:18:07;;;;;;;45.67;22.80;;;-1.70;99.90;;;;;;5062038;28;20205;-76
2023/01/21 07:20:34;;;;;;;44.20;21.90;;;-1.70;99.90;;;;;;5062827;28;20215;-88
2023/01/21 07:23:01;;;;;;;42.43;21.37;;;-1.70;99.90;;;;;;5069165;28;20569;-84
2023/01/21 07:25:28;;;;;;;40.43;21.60;;;-1.70;99.90;;;;;;5069575;28;20331;-89
2023/01/21 07:27:55;;;;;;;47.00;23.67;;;-1.60;99.90;;;;;;5069358;28;20254;-87
2023/01/21 07:30:22;;;;;;;40.60;20.93;;;-1.60;99.90;;;;;;5071067;28;20211;-89
2023/01/21 07:32:49;;;;;;;38.93;19.67;;;-1.60;99.90;;;;;;5074299;28;20775;-89
2023/01/21 07:35:17;;;;;;;43.13;22.30;;;-1.60;99.90;;;;;;5073463;28;20258;-78
2023/01/21 07:37:44;;;;;;;41.50;21.50;;;-1.50;99.90;;;;;;5067475;28;20197;-89
2023/01/21 07:40:12;;;;;;;49.73;25.67;;;-1.50;99.90;;;;;;5073430;28;20221;-88
2023/01/21 07:42:39;;;;;;;45.70;22.37;;;-1.40;99.90;;;;;;5069806;28;20215;-88
2023/01/21 07:45:06;;;;;;;42.90;22.67;;;-1.40;99.90;;;;;;5069718;28;20189;-83
2023/01/21 07:47:33;;;;;;;49.57;24.27;;;-1.30;99.90;;;;;;5069946;28;20207;-77
2023/01/21 07:50:03;;;;;;;45.77;23.17;;;-1.30;99.90;;;;;;5069488;28;20211;-84
2023/01/21 07:52:32;;;;;;;47.73;24.80;;;-1.30;99.90;;;;;;5069850;28;20252;-79
2023/01/21 07:55:00;;;;;;;50.77;26.30;;;-1.20;99.90;;;;;;5069437;28;20263;-85
2023/01/21 07:57:27;;;;;;;52.97;27.17;;;-1.10;99.90;;;;;;5069451;28;20211;-79
2023/01/21 07:59:54;;;;;;;51.57;25.83;;;-1.10;99.90;;;;;;5069746;28;20200;-81
2023/01/21 08:02:21;;;;;;;54.10;26.97;;;-1.00;99.90;;;;;;5069856;28;20205;-84
2023/01/21 08:04:48;;;;;;;67.60;28.47;;;-0.90;99.90;;;;;;5069447;28;20201;-82
2023/01/21 08:07:15;;;;;;;55.70;27.30;;;-0.80;99.90;;;;;;5069686;28;20471;-80
2023/01/21 08:09:43;;;;;;;56.50;27.03;;;-0.70;99.90;;;;;;5068505;28;20236;-80
2023/01/21 08:12:10;;;;;;;61.53;27.93;;;-0.60;99.90;;;;;;5070272;28;20237;-77
2023/01/21 08:14:38;;;;;;;62.10;27.73;;;-0.50;99.90;;;;;;5067746;28;20337;-81
2023/01/21 08:17:05;;;;;;;62.50;29.40;;;-0.30;99.90;;;;;;5066748;28;20194;-78
2023/01/21 08:19:32;;;;;;;62.33;29.07;;;-0.10;99.90;;;;;;5068113;28;20190;-82
2023/01/21 08:21:59;;;;;;;56.03;25.90;;;-0.10;99.90;;;;;;5070631;28;20205;-90
2023/01/21 08:24:26;;;;;;;102.07;28.90;;;-0.10;99.90;;;;;;5070112;28;20204;-90
2023/01/21 08:26:57;;;;;;;52.17;25.10;;;0.00;99.90;;;;;;5066969;28;20355;-78
2023/01/21 08:36:27;;;;;;;46.40;22.53;;;0.10;99.90;;;;;;4934749;28;20591;-90
2023/01/21 08:38:54;;;;;;;47.17;22.77;;;0.10;99.90;;;;;;5041704;28;20659;-76
2023/01/21 08:41:21;;;;;;;51.23;23.93;;;0.20;99.90;;;;;;5066920;28;20217;-77
2023/01/21 08:43:49;;;;;;;44.90;22.73;;;0.20;99.90;;;;;;5050670;28;20292;-80
2023/01/21 08:46:18;;;;;;;47.40;24.03;;;0.20;99.90;;;;;;5062624;28;20215;-77
2023/01/21 08:48:44;;;;;;;44.23;21.93;;;0.30;99.90;;;;;;5066013;28;20200;-77
2023/01/21 08:51:11;;;;;;;42.73;21.17;;;0.30;99.90;;;;;;5061788;28;20307;-79
2023/01/21 08:53:38;;;;;;;57.43;22.57;;;0.30;99.90;;;;;;5068920;28;20264;-82
2023/01/21 08:56:06;;;;;;;43.43;21.37;;;0.40;99.90;;;;;;5076526;28;20286;-86
2023/01/21 08:58:33;;;;;;;41.17;19.83;;;0.40;99.90;;;;;;5070539;28;20215;-89
2023/01/21 09:01:07;;;;;;;45.93;22.17;;;0.50;99.90;;;;;;5072558;28;20252;-86
2023/01/21 09:03:34;;;;;;;36.07;19.27;;;0.50;99.90;;;;;;5070850;28;20208;-89
2023/01/21 09:06:01;;;;;;;51.90;20.33;;;0.50;99.90;;;;;;5071704;28;20219;-84
2023/01/21 09:08:28;;;;;;;63.10;22.47;;;0.60;99.90;;;;;;5066903;28;20233;-89
2023/01/21 09:11:04;;;;;;;39.90;18.57;;;0.60;99.90;;;;;;5072247;28;20236;-91
2023/01/21 09:13:32;;;;;;;38.27;18.07;;;0.70;99.90;;;;;;5074314;28;20292;-90
2023/01/21 09:16:01;;;;;;;39.63;20.50;;;0.70;99.90;;;;;;5087893;28;20230;-90
2023/01/21 09:18:29;;;;;;;36.70;19.07;;;0.80;99.90;;;;;;5080608;28;20209;-90
2023/01/21 09:21:00;;;;;;;37.80;19.40;;;0.80;99.90;;;;;;5051693;28;20208;-88
2023/01/21 09:23:30;;;;;;;36.00;19.50;;;0.90;99.90;;;;;;5051917;28;20281;-90
2023/01/21 09:26:02;;;;;;;43.83;21.17;;;0.90;99.90;;;;;;5052108;28;20238;-92
2023/01/21 09:28:30;;;;;;;45.70;22.27;;;0.90;99.90;;;;;;5064700;28;20212;-93
2023/01/21 09:30:57;;;;;;;43.50;21.60;;;1.00;99.90;;;;;;5072009;28;20229;-93
2023/01/21 09:33:26;;;;;;;46.57;20.83;;;1.00;99.90;;;;;;5070702;28;20231;-91
2023/01/21 09:35:54;;;;;;;44.90;22.57;;;1.00;99.90;;;;;;5076623;28;20295;-90
2023/01/21 09:38:21;;;;;;;40.90;19.63;;;1.00;99.90;;;;;;5072024;28;20206;-94
2023/01/21 09:40:48;;;;;;;44.57;22.43;;;1.00;99.90;;;;;;5071218;28;20308;-93
2023/01/21 09:43:21;;;;;;;46.83;22.97;;;1.10;99.90;;;;;;5071485;28;20283;-92
2023/01/21 09:45:50;;;;;;;46.23;23.07;;;1.10;99.90;;;;;;5071105;28;20214;-90
2023/01/21 09:48:27;;;;;;;61.77;26.07;;;1.20;99.90;;;;;;5070047;28;20313;-79
2023/01/21 09:50:58;;;;;;;65.13;25.47;;;1.20;99.90;;;;;;5065927;28;20193;-85
2023/01/21 09:53:34;;;;;;;62.53;26.43;;;1.20;99.90;;;;;;5069821;28;20320;-89
2023/01/21 09:56:04;;;;;;;51.83;26.43;;;1.20;99.90;;;;;;5068696;28;20197;-85
2023/01/21 09:58:35;;;;;;;47.97;23.83;;;1.30;99.90;;;;;;5067533;28;20525;-89
2023/01/21 10:01:08;;;;;;;52.87;24.13;;;1.30;99.90;;;;;;5069580;28;20189;-81
2023/01/21 10:03:44;;;;;;;54.97;25.30;;;1.30;99.90;;;;;;5067785;28;20189;-86
2023/01/21 10:06:28;;;;;;;58.17;24.63;;;1.40;99.90;;;;;;5067242;28;20224;-81
2023/01/21 10:09:29;;;;;;;50.37;24.50;;;1.40;99.90;;;;;;5066709;28;20695;-81
2023/01/21 10:12:24;;;;;;;58.00;26.27;;;1.50;99.90;;;;;;5048086;28;20201;-84
2023/01/21 10:15:04;;;;;;;52.07;25.20;;;1.60;99.90;;;;;;5066036;28;20217;-83
2023/01/21 10:17:39;;;;;;;63.50;28.40;;;1.70;99.90;;;;;;5065027;28;20193;-79
2023/01/21 10:20:13;;;;;;;54.47;26.03;;;1.70;99.90;;;;;;5065486;28;20205;-82
2023/01/21 10:22:45;;;;;;;52.50;25.63;;;1.70;99.90;;;;;;5062146;28;20197;-79
2023/01/21 10:25:20;;;;;;;51.90;25.10;;;1.80;99.90;;;;;;5049358;28;20645;-85
2023/01/21 10:27:47;;;;;;;61.07;27.57;;;1.90;99.90;;;;;;5059832;28;20911;-84
2023/01/21 10:30:23;;;;;;;63.10;28.90;;;1.90;99.90;;;;;;5070150;28;20259;-84
2023/01/21 10:32:52;;;;;;;56.67;27.77;;;2.00;99.90;;;;;;5069566;28;20765;-87
2023/01/21 10:35:28;;;;;;;68.77;30.67;;;2.00;99.90;;;;;;5070276;28;20201;-86
2023/01/21 10:38:05;;;;;;;59.70;28.70;;;2.10;99.90;;;;;;5068257;28;20197;-83
2023/01/21 10:40:45;;;;;;;61.47;29.50;;;2.10;99.90;;;;;;5068309;28;20665;-83
2023/01/21 10:43:22;;;;;;;58.03;27.37;;;2.20;99.90;;;;;;5067798;28;20288;-82
2023/01/21 10:45:55;;;;;;;56.63;27.07;;;2.20;99.90;;;;;;5068635;28;20193;-85
2023/01/21 10:48:31;;;;;;;58.93;27.33;;;2.30;99.90;;;;;;5068750;28;20185;-83
2023/01/21 10:51:05;;;;;;;62.47;29.17;;;2.40;99.90;;;;;;5067552;28;20544;-78
2023/01/21 10:53:43;;;;;;;61.90;29.33;;;2.40;99.90;;;;;;5063747;28;20224;-80
2023/01/21 10:56:19;;;;;;;64.27;30.63;;;2.50;99.90;;;;;;5065560;28;20189;-80
2023/01/21 10:58:49;;;;;;;60.90;30.03;;;2.50;99.90;;;;;;5044659;28;20551;-81
2023/01/21 11:01:21;;;;;;;65.30;30.47;;;2.50;99.90;;;;;;5064779;28;20488;-84
2023/01/21 11:03:51;;;;;;;65.43;29.80;;;2.50;99.90;;;;;;5064595;28;20209;-83
2023/01/21 11:06:21;;;;;;;77.30;33.50;;;2.50;99.90;;;;;;5069729;28;20201;-79
2023/01/21 11:08:54;;;;;;;62.20;29.67;;;2.50;99.90;;;;;;5068972;28;20224;-80
2023/01/21 11:11:29;;;;;;;69.63;32.03;;;2.50;99.90;;;;;;5068759;28;20185;-80
2023/01/21 11:13:56;;;;;;;70.00;30.57;;;2.60;99.90;;;;;;5067149;28;20253;-81
2023/01/21 11:16:35;;;;;;;59.57;29.73;;;2.60;99.90;;;;;;5069475;28;20296;-81
2023/01/21 11:19:04;;;;;;;50.33;24.40;;;2.60;99.90;;;;;;5068186;28;20205;-79
2023/01/21 11:21:31;;;;;;;51.97;24.97;;;2.60;99.90;;;;;;5068579;28;20204;-79
2023/01/21 11:24:01;;;;;;;51.07;27.03;;;2.60;99.90;;;;;;5069294;28;20605;-80
2023/01/21 11:26:31;;;;;;;49.80;24.07;;;2.60;99.90;;;;;;5067738;28;20539;-80
2023/01/21 11:29:11;;;;;;;47.63;25.37;;;2.60;99.90;;;;;;5069337;28;20201;-82
2023/01/21 11:31:40;;;;;;;48.50;25.13;;;2.60;99.90;;;;;;5068666;28;20211;-81
2023/01/21 11:34:13;;;;;;;49.90;22.73;;;2.60;99.90;;;;;;5067716;28;20533;-82
2023/01/21 11:37:01;;;;;;;42.17;21.67;;;2.70;99.90;;;;;;5066679;28;20586;-81
2023/01/21 11:39:31;;;;;;;46.07;20.97;;;2.70;99.90;;;;;;5064732;28;20259;-82
2023/01/21 11:42:05;;;;;;;48.30;22.90;;;2.70;99.90;;;;;;5064996;28;20209;-81
2023/01/21 11:44:33;;;;;;;41.20;21.80;;;2.80;99.90;;;;;;5067039;28;20586;-81
2023/01/21 11:47:00;;;;;;;41.80;21.90;;;2.80;99.90;;;;;;5065142;28;20835;-80
2023/01/21 11:49:31;;;;;;;42.40;20.47;;;2.90;99.90;;;;;;5085880;28;20204;-80
2023/01/21 11:52:15;;;;;;;35.57;19.90;;;2.90;99.90;;;;;;5065928;28;20270;-81
2023/01/21 11:54:44;;;;;;;38.30;19.83;;;3.00;99.90;;;;;;5044557;28;20253;-81
2023/01/21 11:57:26;;;;;;;31.57;17.80;;;3.00;99.90;;;;;;5050520;28;20212;-82
2023/01/21 12:00:00;;;;;;;39.07;20.10;;;3.00;99.90;;;;;;5046158;28;20182;-80
2023/01/21 12:02:30;;;;;;;32.90;18.50;;;3.00;99.90;;;;;;5063383;28;20217;-81
2023/01/21 12:05:01;;;;;;;32.03;18.23;;;3.10;99.90;;;;;;5065820;28;20204;-81
2023/01/21 12:07:31;;;;;;;32.07;19.10;;;3.10;99.90;;;;;;5065259;28;20217;-83
2023/01/21 12:10:07;;;;;;;33.20;19.00;;;3.20;99.90;;;;;;5064774;28;20221;-82
2023/01/21 12:12:47;;;;;;;29.17;17.27;;;3.20;99.90;;;;;;5054720;28;20201;-81
2023/01/21 12:15:31;;;;;;;29.73;18.10;;;3.20;99.90;;;;;;5047426;28;20263;-81
2023/01/21 12:18:09;;;;;;;33.87;18.57;;;3.20;99.90;;;;;;5046940;28;20194;-81
2023/01/21 12:20:42;;;;;;;34.10;20.27;;;3.20;99.90;;;;;;5062608;28;20208;-81
2023/01/21 12:23:25;;;;;;;35.90;20.43;;;3.30;99.90;;;;;;5065493;28;20217;-81
2023/01/21 12:26:00;;;;;;;31.30;18.27;;;3.30;99.90;;;;;;5064253;28;20248;-80
2023/01/21 12:28:50;;;;;;;36.23;19.67;;;3.20;99.90;;;;;;5066490;28;20865;-80
2023/01/21 12:31:24;;;;;;;33.70;20.10;;;3.30;99.90;;;;;;5067778;28;20213;-80
2023/01/21 12:33:58;;;;;;;37.60;19.67;;;3.30;99.90;;;;;;5069071;28;20206;-81
2023/01/21 12:36:30;;;;;;;31.57;18.07;;;3.30;99.90;;;;;;5032491;28;20754;-80
2023/01/21 12:39:13;;;;;;;35.07;18.27;;;3.30;99.90;;;;;;5052587;28;20206;-81
2023/01/21 12:41:46;;;;;;;33.00;17.77;;;3.30;99.90;;;;;;5063135;28;20189;-80
2023/01/21 12:44:24;;;;;;;33.67;19.60;;;3.40;99.90;;;;;;5065492;28;20229;-80
2023/01/21 12:46:55;;;;;;;29.63;18.70;;;3.40;99.90;;;;;;5051427;28;20563;-81
2023/01/21 12:49:28;;;;;;;28.13;16.90;;;3.50;99.90;;;;;;5052762;28;20247;-81
2023/01/21 12:51:59;;;;;;;30.70;18.40;;;3.50;99.90;;;;;;5057339;28;20220;-83
2023/01/21 12:54:36;;;;;;;39.67;21.63;;;3.50;99.90;;;;;;5074915;28;20252;-83
2023/01/21 12:57:13;;;;;;;32.30;19.43;;;3.50;99.90;;;;;;5075577;28;20188;-82
2023/01/21 12:59:45;;;;;;;34.73;20.07;;;3.60;99.90;;;;;;5075250;28;20185;-83
2023/01/21 13:02:23;;;;;;;32.97;19.63;;;3.60;99.90;;;;;;5075492;28;20209;-83